Mount Victoria, Maryland
Current Conditions -  °F | °C
As of 11:09 PM on Wednesday 17 Dec 2014 (Local Time) from K2W6 Reporting Station
Clear Clear  
Wind Chill: 37°   Ceiling: Unl
Heat Index: 37°   Visibility: 10mi
Dew Point: 27°   Wind: 3mph
Humidity: 65%   Direction: 290°WNW
Pressure: 30.06"   Gusts: NA
Location:  38.35°N, 76.9°W
Report Text: K2W6 180409Z AUTO 29003KT 10SM CLR 03/M03 A3006 RMK AO1
Loading
Personal Weather Stations






























Interactive Weather Map New forecast layout! Learn more

10-Day Weather Forecast

Advertisements
Track Severe Weather on mobile